createdAt,value
2019-04-07T00:02:11.939Z,5.20
2019-04-07T00:04:41.938Z,4.83
2019-04-07T00:07:12.876Z,2.70
2019-04-07T00:09:42.749Z,7.40
2019-04-07T00:12:12.673Z,4.33
2019-04-07T00:14:42.540Z,5.10
2019-04-07T00:17:12.456Z,6.47
2019-04-07T00:19:42.478Z,4.20
2019-04-07T00:22:12.745Z,8.70
2019-04-07T00:24:43.325Z,7.40
2019-04-07T00:27:13.243Z,6.23
2019-04-07T00:29:43.228Z,5.17
2019-04-07T00:32:13.144Z,6.07
2019-04-07T00:34:43.178Z,4.77
2019-04-07T00:37:13.092Z,4.97
2019-04-07T00:39:43.469Z,4.80
2019-04-07T00:42:13.606Z,5.63
2019-04-07T00:44:43.555Z,4.73
2019-04-07T00:47:14.020Z,3.60
2019-04-07T00:49:44.366Z,3.60
2019-04-07T00:52:17.272Z,4.43
2019-04-07T00:54:47.272Z,4.40
2019-04-07T00:57:17.289Z,6.23
2019-04-07T00:59:47.343Z,2.93
2019-04-07T01:02:17.827Z,3.50
2019-04-07T01:04:47.683Z,2.90
2019-04-07T01:07:17.943Z,7.57
2019-04-07T01:09:47.975Z,6.63
2019-04-07T01:12:18.247Z,5.40
2019-04-07T01:14:48.966Z,4.13
2019-04-07T01:17:19.170Z,4.33
2019-04-07T01:19:49.683Z,4.03
2019-04-07T01:22:19.779Z,5.20
2019-04-07T01:24:49.703Z,6.83
2019-04-07T01:27:19.576Z,4.70
2019-04-07T01:29:49.823Z,7.13
2019-04-07T01:32:20.283Z,8.70
2019-04-07T01:34:50.451Z,9.37
2019-04-07T01:37:20.961Z,9.23
2019-04-07T01:39:51.026Z,7.23
2019-04-07T01:42:26.518Z,5.83
2019-04-07T01:45:20.622Z,8.93
2019-04-07T01:47:57.636Z,6.00
2019-04-07T01:50:43.960Z,8.77
2019-04-07T01:53:39.354Z,10.47
2019-04-07T01:56:20.748Z,8.53
2019-04-07T01:59:10.514Z,7.03
2019-04-07T02:02:04.907Z,7.20
2019-04-07T02:04:57.957Z,7.07
2019-04-07T02:07:44.583Z,3.97
2019-04-07T02:10:50.642Z,4.20
2019-04-07T02:13:30.573Z,9.33
2019-04-07T02:16:10.271Z,5.30
2019-04-07T02:18:48.118Z,4.80
2019-04-07T02:21:25.054Z,4.97
2019-04-07T02:24:03.626Z,3.43
2019-04-07T02:27:02.598Z,4.23
2019-04-07T02:29:43.551Z,4.00
2019-04-07T02:32:32.641Z,6.33
2019-04-07T02:35:31.870Z,4.93
2019-04-07T02:38:19.844Z,3.50
2019-04-07T02:40:59.683Z,5.00
2019-04-07T02:43:44.294Z,7.60
2019-04-07T02:46:24.085Z,6.87
2019-04-07T02:49:00.281Z,5.10
2019-04-07T02:51:47.809Z,5.90
2019-04-07T02:54:24.672Z,5.20
2019-04-07T02:57:03.565Z,5.90
2019-04-07T02:59:44.756Z,8.73
2019-04-07T03:02:36.689Z,9.30
2019-04-07T03:05:26.639Z,5.77
2019-04-07T03:08:03.862Z,7.87
2019-04-07T03:10:51.978Z,5.80
2019-04-07T03:13:43.842Z,3.90
2019-04-07T03:16:26.828Z,9.50
2019-04-07T03:19:10.991Z,7.30
2019-04-07T03:21:54.251Z,5.70
2019-04-07T03:24:40.952Z,5.77
2019-04-07T03:27:17.929Z,6.97
2019-04-07T03:30:09.518Z,5.63
2019-04-07T03:33:09.914Z,8.30
2019-04-07T03:35:50.931Z,5.43
2019-04-07T03:38:36.864Z,6.20
2019-04-07T03:41:18.291Z,7.63
2019-04-07T03:44:10.780Z,5.33
2019-04-07T03:46:46.031Z,10.80
2019-04-07T03:49:34.997Z,9.27
2019-04-07T03:52:21.262Z,6.37
2019-04-07T03:55:21.342Z,5.40
2019-04-07T03:58:01.568Z,4.47
2019-04-07T04:01:13.679Z,5.47
2019-04-07T04:03:55.326Z,6.40
2019-04-07T04:06:43.308Z,6.60
2019-04-07T04:09:28.871Z,8.87
2019-04-07T04:12:22.702Z,4.97
2019-04-07T04:15:00.241Z,7.50
2019-04-07T04:17:30.849Z,9.03
2019-04-07T04:20:00.969Z,7.03
2019-04-07T04:22:30.883Z,4.77
2019-04-07T04:25:01.078Z,4.00
2019-04-07T04:27:31.317Z,5.53
2019-04-07T04:30:01.352Z,4.53
2019-04-07T04:32:31.349Z,4.23
2019-04-07T04:35:01.346Z,5.10
2019-04-07T04:37:39.903Z,6.77
2019-04-07T04:40:02.988Z,5.03
2019-04-07T04:42:33.828Z,5.17
2019-04-07T04:45:04.395Z,5.97
2019-04-07T04:47:34.473Z,7.80
2019-04-07T04:50:06.269Z,5.00
2019-04-07T04:52:38.295Z,5.77
2019-04-07T04:55:09.151Z,5.10
2019-04-07T04:57:39.268Z,4.10
2019-04-07T05:00:09.237Z,5.13
2019-04-07T05:02:39.483Z,6.33
2019-04-07T05:05:10.828Z,4.70
2019-04-07T05:07:53.848Z,4.43
2019-04-07T05:10:13.391Z,5.70
2019-04-07T05:12:43.490Z,4.83
2019-04-07T05:15:13.992Z,3.77
2019-04-07T05:17:44.634Z,3.90
2019-04-07T05:20:14.702Z,5.33
2019-04-07T05:22:44.585Z,5.90
2019-04-07T05:25:14.585Z,6.90
2019-04-07T05:27:44.706Z,6.33
2019-04-07T05:30:15.597Z,4.67
2019-04-07T05:32:45.770Z,4.83
2019-04-07T05:35:15.805Z,4.23
2019-04-07T05:37:45.932Z,4.17
2019-04-07T05:40:16.574Z,3.57
2019-04-07T05:42:46.633Z,3.13
2019-04-07T05:45:17.244Z,2.93
2019-04-07T05:47:48.643Z,3.00
2019-04-07T05:50:19.071Z,4.60
2019-04-07T05:52:49.881Z,4.10
2019-04-07T05:55:22.509Z,3.90
2019-04-07T05:57:52.003Z,4.20
2019-04-07T06:00:22.030Z,3.43
2019-04-07T06:02:52.810Z,3.03
2019-04-07T06:05:22.890Z,3.83
2019-04-07T06:07:52.783Z,9.73
2019-04-07T06:10:26.433Z,5.60
2019-04-07T06:12:54.343Z,6.27
2019-04-07T06:15:24.732Z,6.53
2019-04-07T06:17:58.809Z,5.77
2019-04-07T06:20:26.436Z,4.50
2019-04-07T06:22:56.497Z,4.10
2019-04-07T06:25:27.329Z,4.70
2019-04-07T06:27:57.800Z,5.20
2019-04-07T06:30:32.339Z,4.20
2019-04-07T06:33:05.535Z,6.07
2019-04-07T06:35:34.754Z,6.53
2019-04-07T06:38:06.703Z,6.03
2019-04-07T06:40:37.236Z,5.30
2019-04-07T06:43:07.478Z,6.17
2019-04-07T06:45:44.203Z,7.57
2019-04-07T06:48:14.877Z,7.97
2019-04-07T06:51:12.856Z,7.93
2019-04-07T06:54:02.299Z,11.90
2019-04-07T06:56:41.099Z,7.27
2019-04-07T06:59:30.607Z,6.07
2019-04-07T07:02:14.245Z,7.20
2019-04-07T07:05:21.542Z,6.47
2019-04-07T07:08:10.049Z,12.20
2019-04-07T07:11:05.786Z,10.27
2019-04-07T07:13:45.082Z,11.27
2019-04-07T07:16:34.936Z,9.70
2019-04-07T07:19:20.607Z,7.90
2019-04-07T07:22:13.208Z,9.07
2019-04-07T07:24:40.680Z,7.33
2019-04-07T07:27:12.253Z,9.03
2019-04-07T07:29:45.351Z,9.43
2019-04-07T07:32:14.735Z,7.53
2019-04-07T07:34:44.916Z,9.50
2019-04-07T07:37:15.010Z,11.87
2019-04-07T07:39:46.000Z,13.60
2019-04-07T07:42:19.094Z,11.90
2019-04-07T07:44:48.435Z,12.30
2019-04-07T07:47:20.849Z,11.63
2019-04-07T07:49:50.827Z,11.30
2019-04-07T07:52:21.948Z,11.50
2019-04-07T07:54:53.524Z,12.70
2019-04-07T07:57:24.735Z,12.27
2019-04-07T07:59:55.288Z,11.40
2019-04-07T08:02:25.280Z,18.27
2019-04-07T08:04:58.394Z,17.67
2019-04-07T08:07:26.899Z,16.37
2019-04-07T08:09:57.845Z,18.57
2019-04-07T08:12:28.185Z,19.20
2019-04-07T08:14:58.630Z,17.83
2019-04-07T08:17:31.641Z,19.07
2019-04-07T08:20:01.051Z,18.47
2019-04-07T08:22:38.869Z,19.27
2019-04-07T08:25:02.930Z,15.57
2019-04-07T08:27:33.144Z,13.57
2019-04-07T08:30:03.807Z,13.73
2019-04-07T08:32:34.312Z,13.23
2019-04-07T08:35:05.572Z,11.97
2019-04-07T08:37:36.459Z,11.57
2019-04-07T08:40:07.678Z,10.10
2019-04-07T08:42:38.161Z,8.80
2019-04-07T08:45:09.358Z,8.10
2019-04-07T08:47:40.185Z,7.77
2019-04-07T08:50:10.528Z,7.47
2019-04-07T08:52:42.633Z,7.23
2019-04-07T08:55:12.857Z,7.00
2019-04-07T08:57:43.466Z,6.00
2019-04-07T09:00:20.189Z,6.10
2019-04-07T09:03:00.911Z,5.00
2019-04-07T09:05:26.864Z,6.90
2019-04-07T09:07:54.013Z,6.40
2019-04-07T09:12:53.275Z,5.70
2019-04-07T09:15:33.021Z,6.00
2019-04-07T09:18:12.717Z,7.40
2019-04-07T09:20:50.602Z,6.90
2019-04-07T09:23:27.500Z,6.90
2019-04-07T09:26:23.857Z,6.53
2019-04-07T09:29:11.700Z,6.90
2019-04-07T09:32:08.284Z,6.80
2019-04-07T09:35:07.266Z,7.30
2019-04-07T09:37:45.905Z,6.37
2019-04-07T09:40:34.050Z,6.63
2019-04-07T09:43:32.538Z,7.37
2019-04-07T09:46:24.922Z,7.57
2019-04-07T09:49:01.276Z,7.37
2019-04-07T09:52:10.340Z,6.67
2019-04-07T09:54:51.688Z,6.87
2019-04-07T09:57:30.279Z,6.97
2019-04-07T10:00:23.235Z,6.23
2019-04-07T10:03:16.037Z,6.80
2019-04-07T10:05:56.608Z,6.87
2019-04-07T10:08:41.984Z,6.23
2019-04-07T10:11:33.889Z,5.70
2019-04-07T10:14:18.420Z,6.80
2019-04-07T10:17:09.580Z,6.63
2019-04-07T10:19:48.889Z,6.10
2019-04-07T10:22:30.648Z,5.83
2019-04-07T10:25:28.026Z,5.63
2019-04-07T10:28:12.842Z,6.60
2019-04-07T10:30:54.086Z,6.27
2019-04-07T10:33:41.843Z,6.60
2019-04-07T10:36:22.990Z,6.63
2019-04-07T10:38:59.555Z,6.03
2019-04-07T10:41:51.756Z,6.10
2019-04-07T10:44:47.950Z,5.93
2019-04-07T10:47:28.109Z,6.37
2019-04-07T10:50:16.707Z,6.57
2019-04-07T10:53:17.686Z,6.00
2019-04-07T10:56:02.226Z,6.07
2019-04-07T10:59:00.461Z,6.47
2019-04-07T11:01:53.346Z,6.23
2019-04-07T11:04:34.058Z,6.13
2019-04-07T11:07:32.787Z,6.90
2019-04-07T11:10:32.574Z,8.10
2019-04-07T11:13:20.919Z,7.97
2019-04-07T11:16:06.374Z,7.93
2019-04-07T11:18:53.037Z,7.43
2019-04-07T11:21:33.751Z,7.90
2019-04-07T11:24:22.173Z,7.50
2019-04-07T11:27:17.279Z,7.17
2019-04-07T11:29:56.372Z,7.03
2019-04-07T11:32:48.484Z,8.33
2019-04-07T11:35:43.371Z,8.20
2019-04-07T11:38:32.475Z,8.70
2019-04-07T11:41:24.220Z,9.77
2019-04-07T11:44:03.705Z,7.50
2019-04-07T11:46:54.550Z,7.07
2019-04-07T11:49:45.039Z,8.77
2019-04-07T11:52:21.054Z,8.57
2019-04-07T11:55:11.845Z,8.73
2019-04-07T11:58:02.988Z,9.33
2019-04-07T12:00:41.688Z,7.27
2019-04-07T12:03:26.973Z,7.20
2019-04-07T12:06:17.067Z,7.17
2019-04-07T12:09:00.312Z,7.37
2019-04-07T12:11:48.359Z,7.77
2019-04-07T12:14:40.279Z,7.27
2019-04-07T12:17:30.050Z,7.90
2019-04-07T12:20:09.603Z,7.13
2019-04-07T12:22:47.720Z,7.20
2019-04-07T12:25:40.112Z,7.60
2019-04-07T12:28:28.523Z,7.30
2019-04-07T12:31:20.411Z,6.73
2019-04-07T12:34:03.903Z,7.20
2019-04-07T12:36:56.186Z,6.87
2019-04-07T12:39:54.445Z,7.20
2019-04-07T12:42:55.274Z,6.90
2019-04-07T12:45:49.296Z,7.40
2019-04-07T12:48:31.600Z,8.07
2019-04-07T12:51:10.514Z,7.60
2019-04-07T12:53:53.666Z,7.37
2019-04-07T12:56:52.400Z,7.83
2019-04-07T12:59:51.691Z,8.37
2019-04-07T13:02:32.339Z,7.70
2019-04-07T13:05:08.797Z,7.17
2019-04-07T13:07:50.990Z,7.20
2019-04-07T13:10:35.109Z,8.00
2019-04-07T13:13:29.500Z,7.93
2019-04-07T13:16:14.625Z,7.93
2019-04-07T13:19:01.792Z,7.50
2019-04-07T13:22:01.640Z,8.80
2019-04-07T13:24:48.569Z,7.47
2019-04-07T13:27:37.246Z,7.00
2019-04-07T13:30:17.055Z,6.47
2019-04-07T13:33:00.448Z,6.60
2019-04-07T13:35:50.805Z,7.03
2019-04-07T13:38:46.092Z,7.47
2019-04-07T13:41:44.265Z,6.63
2019-04-07T13:44:27.076Z,6.07
2019-04-07T13:47:23.090Z,5.73
2019-04-07T13:50:11.520Z,5.63
2019-04-07T13:53:01.402Z,5.10
2019-04-07T13:55:46.932Z,4.97
2019-04-07T13:58:39.020Z,5.20
2019-04-07T14:01:36.970Z,4.97
2019-04-07T14:04:36.017Z,5.40
2019-04-07T14:07:31.712Z,5.23
2019-04-07T14:10:22.036Z,4.77
2019-04-07T14:13:05.362Z,4.43
2019-04-07T14:15:53.856Z,5.20
2019-04-07T14:18:45.085Z,4.30
2019-04-07T14:21:32.425Z,3.90
2019-04-07T14:24:25.076Z,3.63
2019-04-07T14:27:12.209Z,3.27
2019-04-07T14:29:55.924Z,3.27
2019-04-07T14:32:39.325Z,2.90
2019-04-07T14:35:24.295Z,3.60
2019-04-07T14:38:13.598Z,3.10
2019-04-07T14:41:11.730Z,3.27
2019-04-07T14:43:54.168Z,3.00
2019-04-07T14:46:42.563Z,2.97
2019-04-07T14:49:31.854Z,2.70
2019-04-07T14:52:13.364Z,3.40
2019-04-07T14:55:01.635Z,2.60
2019-04-07T14:57:54.614Z,2.70
2019-04-07T15:00:52.879Z,2.50
2019-04-07T15:03:23.446Z,2.77
2019-04-07T15:05:56.345Z,2.33
2019-04-07T15:08:44.595Z,2.43
2019-04-07T15:11:20.236Z,2.70
2019-04-07T15:13:50.586Z,2.30
2019-04-07T15:16:20.717Z,2.30
2019-04-07T15:18:52.239Z,2.30
2019-04-07T15:21:23.852Z,2.23
2019-04-07T15:23:54.082Z,2.33
2019-04-07T15:26:24.712Z,2.60
2019-04-07T15:28:57.093Z,2.40
2019-04-07T15:31:26.782Z,2.23
2019-04-07T15:33:57.428Z,2.50
2019-04-07T15:36:27.629Z,3.13
2019-04-07T15:38:58.570Z,2.97
2019-04-07T15:41:30.626Z,2.40
2019-04-07T15:44:01.537Z,2.93
2019-04-07T15:46:32.180Z,2.60
2019-04-07T15:49:02.701Z,2.53
2019-04-07T15:51:35.114Z,2.73
2019-04-07T15:54:04.343Z,2.90
2019-04-07T15:56:34.218Z,2.13
2019-04-07T15:59:04.153Z,2.00
2019-04-07T16:01:36.082Z,2.73
2019-04-07T16:04:06.957Z,2.40
2019-04-07T16:06:37.252Z,2.40
2019-04-07T16:09:16.702Z,2.47
2019-04-07T16:11:40.337Z,2.10
2019-04-07T16:14:13.305Z,2.37
2019-04-07T16:16:42.620Z,2.70
2019-04-07T16:19:18.928Z,2.80
2019-04-07T16:21:45.510Z,2.47
2019-04-07T16:24:15.559Z,2.50
2019-04-07T16:26:45.517Z,2.70
2019-04-07T16:29:17.926Z,2.70
2019-04-07T16:31:47.754Z,3.00
2019-04-07T16:34:19.174Z,2.37
2019-04-07T16:36:51.052Z,2.43
2019-04-07T16:39:21.140Z,2.83
2019-04-07T16:41:51.261Z,3.30
2019-04-07T16:44:21.323Z,3.10
2019-04-07T16:46:54.690Z,2.60
2019-04-07T16:49:23.649Z,3.17
2019-04-07T16:51:58.319Z,2.67
2019-04-07T16:54:26.662Z,2.87
2019-04-07T16:56:58.310Z,2.83
2019-04-07T16:59:28.734Z,3.50
2019-04-07T17:01:59.117Z,3.03
2019-04-07T17:04:30.043Z,2.33
2019-04-07T17:07:05.021Z,2.90
2019-04-07T17:09:33.489Z,3.30
2019-04-07T17:12:03.843Z,3.40
2019-04-07T17:14:36.079Z,3.10
2019-04-07T17:17:05.913Z,2.80
2019-04-07T17:19:37.281Z,2.80
2019-04-07T17:22:11.585Z,2.43
2019-04-07T17:24:39.920Z,2.60
2019-04-07T17:27:11.773Z,2.93
2019-04-07T17:29:46.762Z,2.50
2019-04-07T17:32:17.525Z,2.50
2019-04-07T17:34:48.290Z,2.07
2019-04-07T17:37:21.779Z,2.53
2019-04-07T17:40:01.387Z,2.47
2019-04-07T17:42:32.342Z,2.30
2019-04-07T17:45:20.391Z,2.57
2019-04-07T17:48:07.284Z,2.17
2019-04-07T17:51:06.284Z,1.60
2019-04-07T17:53:53.942Z,2.30
2019-04-07T17:56:43.178Z,2.00
2019-04-07T17:59:28.544Z,2.00
2019-04-07T18:02:14.233Z,1.73
2019-04-07T18:05:04.294Z,1.80
2019-04-07T18:08:11.985Z,1.40
2019-04-07T18:11:00.704Z,1.27
2019-04-07T18:13:50.245Z,1.37
2019-04-07T18:16:54.821Z,1.10
2019-04-07T18:19:50.518Z,1.10
2019-04-07T18:22:39.117Z,0.97
2019-04-07T18:25:33.115Z,1.00
2019-04-07T18:28:06.819Z,0.90
2019-04-07T18:30:45.251Z,0.90
2019-04-07T18:33:34.619Z,0.90
2019-04-07T18:36:24.507Z,0.90
2019-04-07T18:39:33.066Z,1.10
2019-04-07T18:42:15.414Z,0.97
2019-04-07T18:45:02.379Z,1.10
2019-04-07T18:47:53.903Z,0.93
2019-04-07T18:50:41.210Z,1.00
2019-04-07T18:53:20.708Z,0.97
2019-04-07T18:56:09.902Z,1.40
2019-04-07T18:58:57.872Z,0.97
2019-04-07T19:01:46.907Z,1.40
2019-04-07T19:04:36.918Z,1.00
2019-04-07T19:07:24.912Z,1.10
2019-04-07T19:10:19.893Z,1.47
2019-04-07T19:13:10.960Z,1.07
2019-04-07T19:15:44.933Z,1.00
2019-04-07T19:18:35.588Z,1.00
2019-04-07T19:21:31.551Z,1.33
2019-04-07T19:24:19.796Z,2.53
2019-04-07T19:26:56.484Z,2.03
2019-04-07T19:29:39.151Z,1.60
2019-04-07T19:32:39.999Z,1.50
2019-04-07T19:35:28.258Z,1.20
2019-04-07T19:38:08.057Z,1.10
2019-04-07T19:40:51.391Z,1.50
2019-04-07T19:43:56.496Z,1.20
2019-04-07T19:46:43.368Z,1.30
2019-04-07T19:49:37.432Z,2.23
2019-04-07T19:52:25.473Z,1.70
2019-04-07T19:55:06.697Z,2.00
2019-04-07T19:58:08.005Z,1.80
2019-04-07T20:01:01.655Z,3.03
2019-04-07T20:03:56.505Z,3.30
2019-04-07T20:06:36.271Z,3.10
2019-04-07T20:09:17.388Z,3.10
2019-04-07T20:11:55.623Z,5.20
2019-04-07T20:14:48.012Z,6.23
2019-04-07T20:17:39.760Z,8.73
2019-04-07T20:20:25.805Z,10.17
2019-04-07T20:23:18.834Z,9.33
2019-04-07T20:25:58.064Z,10.63
2019-04-07T20:28:34.465Z,12.60
2019-04-07T20:31:20.846Z,14.37
2019-04-07T20:34:07.670Z,13.83
2019-04-07T20:36:48.022Z,12.10
2019-04-07T20:39:39.961Z,12.80
2019-04-07T20:42:21.534Z,9.77
2019-04-07T20:45:14.277Z,12.20
2019-04-07T20:48:01.273Z,12.63
2019-04-07T20:50:54.100Z,8.77
2019-04-07T20:53:38.575Z,9.67
2019-04-07T20:56:27.832Z,9.63
2019-04-07T20:59:15.291Z,8.23
2019-04-07T21:02:06.719Z,11.10
2019-04-07T21:04:39.669Z,13.47
2019-04-07T21:07:35.416Z,10.27
2019-04-07T21:10:18.821Z,9.50
2019-04-07T21:12:54.818Z,12.30
2019-04-07T21:15:36.885Z,9.97
2019-04-07T21:18:23.910Z,11.60
2019-04-07T21:21:07.029Z,12.37
2019-04-07T21:24:05.762Z,7.53
2019-04-07T21:26:53.138Z,9.90
2019-04-07T21:29:46.839Z,12.70
2019-04-07T21:32:33.291Z,9.13
2019-04-07T21:35:23.088Z,8.63
2019-04-07T21:38:10.964Z,9.77
2019-04-07T21:41:03.959Z,11.27
2019-04-07T21:43:42.418Z,10.60
2019-04-07T21:46:30.489Z,10.97
2019-04-07T21:49:20.528Z,11.83
2019-04-07T21:51:57.712Z,12.63
2019-04-07T21:54:46.480Z,8.27
2019-04-07T21:57:24.256Z,6.50
2019-04-07T22:00:27.069Z,10.40
2019-04-07T22:03:15.776Z,14.37
2019-04-07T22:06:21.959Z,9.00
2019-04-07T22:09:00.247Z,11.30
2019-04-07T22:11:30.573Z,12.73
2019-04-07T22:14:00.979Z,13.10
2019-04-07T22:16:32.766Z,12.10
2019-04-07T22:19:02.659Z,11.70
2019-04-07T22:21:32.704Z,13.57
2019-04-07T22:24:03.049Z,14.00
2019-04-07T22:26:33.640Z,13.33
2019-04-07T22:29:04.576Z,10.27
2019-04-07T22:31:49.305Z,14.87
2019-04-07T22:34:20.645Z,12.80
2019-04-07T22:36:51.794Z,12.57
2019-04-07T22:39:22.615Z,12.17
2019-04-07T22:41:52.754Z,11.10
2019-04-07T22:44:23.244Z,12.43
2019-04-07T22:46:54.424Z,11.30
2019-04-07T22:49:28.545Z,10.00
2019-04-07T22:51:56.781Z,9.13
2019-04-07T22:54:30.706Z,11.30
2019-04-07T22:56:59.404Z,13.97
2019-04-07T22:59:30.178Z,14.73
2019-04-07T23:02:00.247Z,10.77
2019-04-07T23:04:30.215Z,11.13
2019-04-07T23:07:01.178Z,9.27
2019-04-07T23:09:31.430Z,10.93
2019-04-07T23:12:02.214Z,7.93
2019-04-07T23:14:33.820Z,6.33
2019-04-07T23:17:04.177Z,9.93
2019-04-07T23:19:34.406Z,9.90
2019-04-07T23:22:05.303Z,6.43
2019-04-07T23:24:35.388Z,8.60
2019-04-07T23:27:06.132Z,7.53
2019-04-07T23:29:36.649Z,12.43
2019-04-07T23:32:07.411Z,10.47
2019-04-07T23:34:37.494Z,14.77
2019-04-07T23:37:08.163Z,14.23
2019-04-07T23:39:38.197Z,12.70
2019-04-07T23:42:09.039Z,13.37
2019-04-07T23:44:39.440Z,13.13
2019-04-07T23:47:09.560Z,14.47
2019-04-07T23:49:40.518Z,12.10
2019-04-07T23:52:11.067Z,13.73
2019-04-07T23:54:41.871Z,16.23
2019-04-07T23:57:11.950Z,11.37
2019-04-07T23:59:42.229Z,12.80
